sensor_id;sensor_type;location;lat;lon;timestamp;temperature;humidity
20700;DHT22;10511;51.232;9.420;2023-11-21T00:00:41;8.30;99.90
20700;DHT22;10511;51.232;9.420;2023-11-21T00:03:09;8.40;99.90
20700;DHT22;10511;51.232;9.420;2023-11-21T00:05:37;8.40;99.90
20700;DHT22;10511;51.232;9.420;2023-11-21T00:08:04;8.40;99.90
20700;DHT22;10511;51.232;9.420;2023-11-21T00:10:31;8.50;99.90
20700;DHT22;10511;51.232;9.420;2023-11-21T00:12:58;8.60;99.90
20700;DHT22;10511;51.232;9.420;2023-11-21T00:15:27;8.60;99.90
20700;DHT22;10511;51.232;9.420;2023-11-21T00:17:54;8.50;99.90
20700;DHT22;10511;51.232;9.420;2023-11-21T00:20:22;8.40;99.90
20700;DHT22;10511;51.232;9.420;2023-11-21T00:22:49;8.50;99.90
20700;DHT22;10511;51.232;9.420;2023-11-21T00:25:16;8.50;99.90
20700;DHT22;10511;51.232;9.420;2023-11-21T00:27:43;8.50;99.90
20700;DHT22;10511;51.232;9.420;2023-11-21T00:30:11;8.60;99.90
20700;DHT22;10511;51.232;9.420;2023-11-21T00:32:38;8.60;99.90
20700;DHT22;10511;51.232;9.420;2023-11-21T00:35:06;8.60;99.90
20700;DHT22;10511;51.232;9.420;2023-11-21T00:37:34;8.60;99.90
20700;DHT22;10511;51.232;9.420;2023-11-21T00:40:01;8.60;99.90
20700;DHT22;10511;51.232;9.420;2023-11-21T00:42:30;8.60;99.90
20700;DHT22;10511;51.232;9.420;2023-11-21T00:44:58;8.50;99.90
20700;DHT22;10511;51.232;9.420;2023-11-21T00:47:25;8.50;99.90
20700;DHT22;10511;51.232;9.420;2023-11-21T00:49:52;8.60;99.90
20700;DHT22;10511;51.232;9.420;2023-11-21T00:52:19;8.70;99.90
20700;DHT22;10511;51.232;9.420;2023-11-21T00:54:51;8.70;99.90
20700;DHT22;10511;51.232;9.420;2023-11-21T00:57:18;8.70;99.90
20700;DHT22;10511;51.232;9.420;2023-11-21T00:59:45;8.60;99.90
20700;DHT22;10511;51.232;9.420;2023-11-21T01:02:12;8.60;99.90
20700;DHT22;10511;51.232;9.420;2023-11-21T01:04:38;8.60;99.90
20700;DHT22;10511;51.232;9.420;2023-11-21T01:07:05;8.60;99.90
20700;DHT22;10511;51.232;9.420;2023-11-21T01:09:32;8.60;99.90
20700;DHT22;10511;51.232;9.420;2023-11-21T01:12:01;8.50;99.90
20700;DHT22;10511;51.232;9.420;2023-11-21T01:14:27;8.50;99.90
20700;DHT22;10511;51.232;9.420;2023-11-21T01:16:54;8.20;99.90
20700;DHT22;10511;51.232;9.420;2023-11-21T01:19:21;8.00;99.90
20700;DHT22;10511;51.232;9.420;2023-11-21T01:21:49;7.80;99.90
20700;DHT22;10511;51.232;9.420;2023-11-21T01:24:17;7.80;99.90
20700;DHT22;10511;51.232;9.420;2023-11-21T01:26:44;7.90;99.90
20700;DHT22;10511;51.232;9.420;2023-11-21T01:29:13;8.00;99.90
20700;DHT22;10511;51.232;9.420;2023-11-21T01:31:40;8.00;99.90
20700;DHT22;10511;51.232;9.420;2023-11-21T01:34:07;7.80;99.90
20700;DHT22;10511;51.232;9.420;2023-11-21T01:36:34;7.50;99.90
20700;DHT22;10511;51.232;9.420;2023-11-21T01:39:01;7.40;99.90
20700;DHT22;10511;51.232;9.420;2023-11-21T01:41:28;7.40;99.90
20700;DHT22;10511;51.232;9.420;2023-11-21T01:43:56;7.30;99.90
20700;DHT22;10511;51.232;9.420;2023-11-21T01:46:25;7.20;99.90
20700;DHT22;10511;51.232;9.420;2023-11-21T01:48:53;7.20;99.90
20700;DHT22;10511;51.232;9.420;2023-11-21T01:51:20;7.40;99.90
20700;DHT22;10511;51.232;9.420;2023-11-21T01:53:47;7.60;99.90
20700;DHT22;10511;51.232;9.420;2023-11-21T01:56:14;7.70;99.90
20700;DHT22;10511;51.232;9.420;2023-11-21T01:58:42;7.90;99.90
20700;DHT22;10511;51.232;9.420;2023-11-21T02:01:09;7.90;99.90
20700;DHT22;10511;51.232;9.420;2023-11-21T02:03:38;7.70;99.90
20700;DHT22;10511;51.232;9.420;2023-11-21T02:06:05;7.50;99.90
20700;DHT22;10511;51.232;9.420;2023-11-21T02:08:57;7.50;99.90
20700;DHT22;10511;51.232;9.420;2023-11-21T02:11:25;7.30;99.90
20700;DHT22;10511;51.232;9.420;2023-11-21T02:13:53;7.20;99.90
20700;DHT22;10511;51.232;9.420;2023-11-21T02:16:20;7.10;99.90
20700;DHT22;10511;51.232;9.420;2023-11-21T02:18:49;7.00;99.90
20700;DHT22;10511;51.232;9.420;2023-11-21T02:21:16;7.00;99.90
20700;DHT22;10511;51.232;9.420;2023-11-21T02:23:45;7.00;99.90
20700;DHT22;10511;51.232;9.420;2023-11-21T02:26:12;6.90;99.90
20700;DHT22;10511;51.232;9.420;2023-11-21T02:28:39;6.80;99.90
20700;DHT22;10511;51.232;9.420;2023-11-21T02:31:08;6.80;99.90
20700;DHT22;10511;51.232;9.420;2023-11-21T02:33:35;6.80;99.90
20700;DHT22;10511;51.232;9.420;2023-11-21T02:36:02;6.80;99.90
20700;DHT22;10511;51.232;9.420;2023-11-21T02:38:29;6.80;99.90
20700;DHT22;10511;51.232;9.420;2023-11-21T02:40:58;6.90;99.90
20700;DHT22;10511;51.232;9.420;2023-11-21T02:43:25;7.10;99.90
20700;DHT22;10511;51.232;9.420;2023-11-21T02:45:52;7.10;99.90
20700;DHT22;10511;51.232;9.420;2023-11-21T02:48:19;7.00;99.90
20700;DHT22;10511;51.232;9.420;2023-11-21T02:50:46;6.90;99.90
20700;DHT22;10511;51.232;9.420;2023-11-21T02:53:13;6.80;99.90
20700;DHT22;10511;51.232;9.420;2023-11-21T02:55:40;6.80;99.90
20700;DHT22;10511;51.232;9.420;2023-11-21T02:58:08;6.80;99.90
20700;DHT22;10511;51.232;9.420;2023-11-21T03:00:35;6.80;99.90
20700;DHT22;10511;51.232;9.420;2023-11-21T03:03:02;6.80;99.90
20700;DHT22;10511;51.232;9.420;2023-11-21T03:05:29;6.70;99.90
20700;DHT22;10511;51.232;9.420;2023-11-21T03:07:56;6.70;99.90
20700;DHT22;10511;51.232;9.420;2023-11-21T03:10:23;6.70;99.90
20700;DHT22;10511;51.232;9.420;2023-11-21T03:12:50;6.80;99.90
20700;DHT22;10511;51.232;9.420;2023-11-21T03:15:19;6.70;99.90
20700;DHT22;10511;51.232;9.420;2023-11-21T03:17:46;6.70;99.90
20700;DHT22;10511;51.232;9.420;2023-11-21T03:20:14;6.70;99.90
20700;DHT22;10511;51.232;9.420;2023-11-21T03:22:42;6.60;99.90
20700;DHT22;10511;51.232;9.420;2023-11-21T03:25:09;6.60;99.90
20700;DHT22;10511;51.232;9.420;2023-11-21T03:27:37;6.60;99.90
20700;DHT22;10511;51.232;9.420;2023-11-21T03:30:07;6.60;99.90
20700;DHT22;10511;51.232;9.420;2023-11-21T03:32:36;6.50;99.90
20700;DHT22;10511;51.232;9.420;2023-11-21T03:35:04;6.50;99.90
20700;DHT22;10511;51.232;9.420;2023-11-21T03:37:31;6.40;99.90
20700;DHT22;10511;51.232;9.420;2023-11-21T03:39:58;6.50;99.90
20700;DHT22;10511;51.232;9.420;2023-11-21T03:42:25;6.50;99.90
20700;DHT22;10511;51.232;9.420;2023-11-21T03:44:52;6.50;99.90
20700;DHT22;10511;51.232;9.420;2023-11-21T03:47:19;6.50;99.90
20700;DHT22;10511;51.232;9.420;2023-11-21T03:49:47;6.50;99.90
20700;DHT22;10511;51.232;9.420;2023-11-21T03:52:14;6.60;99.90
20700;DHT22;10511;51.232;9.420;2023-11-21T03:54:41;6.80;99.90
20700;DHT22;10511;51.232;9.420;2023-11-21T03:57:08;7.00;99.90
20700;DHT22;10511;51.232;9.420;2023-11-21T03:59:36;7.10;99.90
20700;DHT22;10511;51.232;9.420;2023-11-21T04:02:03;7.10;99.90
20700;DHT22;10511;51.232;9.420;2023-11-21T04:04:30;7.10;99.90
20700;DHT22;10511;51.232;9.420;2023-11-21T04:06:58;7.10;99.90
20700;DHT22;10511;51.232;9.420;2023-11-21T04:09:25;7.10;99.90
20700;DHT22;10511;51.232;9.420;2023-11-21T04:11:52;7.20;99.90
20700;DHT22;10511;51.232;9.420;2023-11-21T04:14:20;7.20;99.90
20700;DHT22;10511;51.232;9.420;2023-11-21T04:16:47;7.20;99.90
20700;DHT22;10511;51.232;9.420;2023-11-21T04:19:14;7.30;99.90
20700;DHT22;10511;51.232;9.420;2023-11-21T04:21:41;7.20;99.90
20700;DHT22;10511;51.232;9.420;2023-11-21T04:24:09;7.20;99.90
20700;DHT22;10511;51.232;9.420;2023-11-21T04:26:37;7.20;99.90
20700;DHT22;10511;51.232;9.420;2023-11-21T04:29:04;7.30;99.90
20700;DHT22;10511;51.232;9.420;2023-11-21T04:31:31;7.30;99.90
20700;DHT22;10511;51.232;9.420;2023-11-21T04:33:58;7.20;99.90
20700;DHT22;10511;51.232;9.420;2023-11-21T04:36:25;7.00;99.90
20700;DHT22;10511;51.232;9.420;2023-11-21T04:38:52;6.70;99.90
20700;DHT22;10511;51.232;9.420;2023-11-21T04:41:20;6.60;99.90
20700;DHT22;10511;51.232;9.420;2023-11-21T04:43:48;6.50;99.90
20700;DHT22;10511;51.232;9.420;2023-11-21T04:46:15;6.40;99.90
20700;DHT22;10511;51.232;9.420;2023-11-21T04:48:41;6.40;99.90
20700;DHT22;10511;51.232;9.420;2023-11-21T04:51:09;6.40;99.90
20700;DHT22;10511;51.232;9.420;2023-11-21T04:53:37;6.40;99.90
20700;DHT22;10511;51.232;9.420;2023-11-21T04:56:05;6.60;99.90
20700;DHT22;10511;51.232;9.420;2023-11-21T04:58:33;6.70;99.90
20700;DHT22;10511;51.232;9.420;2023-11-21T05:01:01;6.70;99.90
20700;DHT22;10511;51.232;9.420;2023-11-21T05:03:28;6.60;99.90
20700;DHT22;10511;51.232;9.420;2023-11-21T05:05:56;6.40;99.90
20700;DHT22;10511;51.232;9.420;2023-11-21T05:08:23;6.30;99.90
20700;DHT22;10511;51.232;9.420;2023-11-21T05:10:51;6.20;99.90
20700;DHT22;10511;51.232;9.420;2023-11-21T05:13:19;6.30;99.90
20700;DHT22;10511;51.232;9.420;2023-11-21T05:15:48;6.40;99.90
20700;DHT22;10511;51.232;9.420;2023-11-21T05:18:15;6.60;99.90
20700;DHT22;10511;51.232;9.420;2023-11-21T05:20:43;6.60;99.90
20700;DHT22;10511;51.232;9.420;2023-11-21T05:23:11;6.50;99.90
20700;DHT22;10511;51.232;9.420;2023-11-21T05:25:38;6.50;99.90
20700;DHT22;10511;51.232;9.420;2023-11-21T05:28:06;6.50;99.90
20700;DHT22;10511;51.232;9.420;2023-11-21T05:30:34;6.40;99.90
20700;DHT22;10511;51.232;9.420;2023-11-21T05:33:02;6.60;99.90
20700;DHT22;10511;51.232;9.420;2023-11-21T05:35:29;6.60;99.90
20700;DHT22;10511;51.232;9.420;2023-11-21T05:37:56;6.40;99.90
20700;DHT22;10511;51.232;9.420;2023-11-21T05:40:23;6.30;99.90
20700;DHT22;10511;51.232;9.420;2023-11-21T05:42:52;6.30;99.90
20700;DHT22;10511;51.232;9.420;2023-11-21T05:45:19;6.30;99.90
20700;DHT22;10511;51.232;9.420;2023-11-21T05:47:46;6.30;99.90
20700;DHT22;10511;51.232;9.420;2023-11-21T05:50:16;6.40;99.90
20700;DHT22;10511;51.232;9.420;2023-11-21T05:52:45;6.30;99.90
20700;DHT22;10511;51.232;9.420;2023-11-21T05:55:12;6.30;99.90
20700;DHT22;10511;51.232;9.420;2023-11-21T05:57:41;6.30;99.90
20700;DHT22;10511;51.232;9.420;2023-11-21T06:00:09;6.30;99.90
20700;DHT22;10511;51.232;9.420;2023-11-21T06:02:41;6.40;99.90
20700;DHT22;10511;51.232;9.420;2023-11-21T06:05:08;6.70;99.90
20700;DHT22;10511;51.232;9.420;2023-11-21T06:07:37;6.60;99.90
20700;DHT22;10511;51.232;9.420;2023-11-21T06:10:07;6.50;99.90
20700;DHT22;10511;51.232;9.420;2023-11-21T06:12:36;6.40;99.90
20700;DHT22;10511;51.232;9.420;2023-11-21T06:15:04;6.40;99.90
20700;DHT22;10511;51.232;9.420;2023-11-21T06:17:34;6.40;99.90
20700;DHT22;10511;51.232;9.420;2023-11-21T06:20:01;6.40;99.90
20700;DHT22;10511;51.232;9.420;2023-11-21T06:22:34;6.50;99.90
20700;DHT22;10511;51.232;9.420;2023-11-21T06:25:03;6.70;99.90
20700;DHT22;10511;51.232;9.420;2023-11-21T06:27:31;6.70;99.90
20700;DHT22;10511;51.232;9.420;2023-11-21T06:29:59;6.70;99.90
20700;DHT22;10511;51.232;9.420;2023-11-21T06:32:27;6.90;99.90
20700;DHT22;10511;51.232;9.420;2023-11-21T06:34:55;6.80;99.90
20700;DHT22;10511;51.232;9.420;2023-11-21T06:37:24;6.80;99.90
20700;DHT22;10511;51.232;9.420;2023-11-21T06:39:50;6.90;99.90
20700;DHT22;10511;51.232;9.420;2023-11-21T06:42:19;7.00;99.90
20700;DHT22;10511;51.232;9.420;2023-11-21T06:44:47;7.20;99.90
20700;DHT22;10511;51.232;9.420;2023-11-21T06:47:14;7.10;99.90
20700;DHT22;10511;51.232;9.420;2023-11-21T06:49:42;6.90;99.90
20700;DHT22;10511;51.232;9.420;2023-11-21T06:52:09;6.90;99.90
20700;DHT22;10511;51.232;9.420;2023-11-21T06:54:37;6.90;99.90
20700;DHT22;10511;51.232;9.420;2023-11-21T06:57:04;7.10;99.90
20700;DHT22;10511;51.232;9.420;2023-11-21T06:59:32;7.20;99.90
20700;DHT22;10511;51.232;9.420;2023-11-21T07:01:59;7.30;99.90
20700;DHT22;10511;51.232;9.420;2023-11-21T07:04:27;7.40;99.90
20700;DHT22;10511;51.232;9.420;2023-11-21T07:06:54;7.40;99.90
20700;DHT22;10511;51.232;9.420;2023-11-21T07:09:21;7.40;99.90
20700;DHT22;10511;51.232;9.420;2023-11-21T07:11:48;7.50;99.90
20700;DHT22;10511;51.232;9.420;2023-11-21T07:14:15;7.40;99.90
20700;DHT22;10511;51.232;9.420;2023-11-21T07:16:46;7.50;99.90
20700;DHT22;10511;51.232;9.420;2023-11-21T07:19:14;7.50;99.90
20700;DHT22;10511;51.232;9.420;2023-11-21T07:21:41;7.40;99.90
20700;DHT22;10511;51.232;9.420;2023-11-21T07:24:08;7.50;99.90
20700;DHT22;10511;51.232;9.420;2023-11-21T07:26:36;7.40;99.90
20700;DHT22;10511;51.232;9.420;2023-11-21T07:29:04;7.40;99.90
20700;DHT22;10511;51.232;9.420;2023-11-21T07:31:31;7.10;99.90
20700;DHT22;10511;51.232;9.420;2023-11-21T07:34:01;7.00;99.90
20700;DHT22;10511;51.232;9.420;2023-11-21T07:36:28;6.90;99.90
20700;DHT22;10511;51.232;9.420;2023-11-21T07:38:55;6.90;99.90
20700;DHT22;10511;51.232;9.420;2023-11-21T07:41:21;6.70;99.90
20700;DHT22;10511;51.232;9.420;2023-11-21T07:43:48;6.60;99.90
20700;DHT22;10511;51.232;9.420;2023-11-21T07:46:15;6.60;99.90
20700;DHT22;10511;51.232;9.420;2023-11-21T07:48:42;6.70;99.90
20700;DHT22;10511;51.232;9.420;2023-11-21T07:51:13;6.60;99.90
20700;DHT22;10511;51.232;9.420;2023-11-21T07:53:40;6.60;99.90
20700;DHT22;10511;51.232;9.420;2023-11-21T07:56:08;6.70;99.90
20700;DHT22;10511;51.232;9.420;2023-11-21T07:58:35;6.80;99.90
20700;DHT22;10511;51.232;9.420;2023-11-21T08:01:02;7.10;99.90
20700;DHT22;10511;51.232;9.420;2023-11-21T08:03:29;7.20;99.90
20700;DHT22;10511;51.232;9.420;2023-11-21T08:05:56;7.10;99.90
20700;DHT22;10511;51.232;9.420;2023-11-21T08:08:25;6.90;99.90
20700;DHT22;10511;51.232;9.420;2023-11-21T08:10:53;6.70;99.90
20700;DHT22;10511;51.232;9.420;2023-11-21T08:13:23;6.60;99.90
20700;DHT22;10511;51.232;9.420;2023-11-21T08:15:50;6.50;99.90
20700;DHT22;10511;51.232;9.420;2023-11-21T08:18:17;6.60;99.90
20700;DHT22;10511;51.232;9.420;2023-11-21T08:20:44;6.60;99.90
20700;DHT22;10511;51.232;9.420;2023-11-21T08:23:14;6.70;99.90
20700;DHT22;10511;51.232;9.420;2023-11-21T08:25:43;6.80;99.90
20700;DHT22;10511;51.232;9.420;2023-11-21T08:28:10;6.90;99.90
20700;DHT22;10511;51.232;9.420;2023-11-21T08:30:37;6.90;99.90
20700;DHT22;10511;51.232;9.420;2023-11-21T08:33:05;7.00;99.90
20700;DHT22;10511;51.232;9.420;2023-11-21T08:35:32;7.20;99.90
20700;DHT22;10511;51.232;9.420;2023-11-21T08:37:59;7.20;99.90
20700;DHT22;10511;51.232;9.420;2023-11-21T08:40:26;7.10;99.90
20700;DHT22;10511;51.232;9.420;2023-11-21T08:42:54;7.10;99.90
20700;DHT22;10511;51.232;9.420;2023-11-21T08:45:21;7.20;99.90
20700;DHT22;10511;51.232;9.420;2023-11-21T08:47:48;7.30;99.90
20700;DHT22;10511;51.232;9.420;2023-11-21T08:50:15;7.40;99.90
20700;DHT22;10511;51.232;9.420;2023-11-21T08:52:45;7.30;99.90
20700;DHT22;10511;51.232;9.420;2023-11-21T08:55:12;7.20;99.90
20700;DHT22;10511;51.232;9.420;2023-11-21T08:57:40;7.20;99.90
20700;DHT22;10511;51.232;9.420;2023-11-21T09:00:10;7.20;99.90
20700;DHT22;10511;51.232;9.420;2023-11-21T09:02:38;7.20;99.90
20700;DHT22;10511;51.232;9.420;2023-11-21T09:05:07;7.30;99.90
20700;DHT22;10511;51.232;9.420;2023-11-21T09:07:35;7.30;99.90
20700;DHT22;10511;51.232;9.420;2023-11-21T09:10:02;7.40;99.90
20700;DHT22;10511;51.232;9.420;2023-11-21T09:12:29;7.50;99.90
20700;DHT22;10511;51.232;9.420;2023-11-21T09:14:58;7.50;99.90
20700;DHT22;10511;51.232;9.420;2023-11-21T09:17:26;7.40;99.90
20700;DHT22;10511;51.232;9.420;2023-11-21T09:19:53;7.50;99.90
20700;DHT22;10511;51.232;9.420;2023-11-21T09:22:20;7.50;99.90
20700;DHT22;10511;51.232;9.420;2023-11-21T09:24:47;7.50;99.90
20700;DHT22;10511;51.232;9.420;2023-11-21T09:27:14;7.40;99.90
20700;DHT22;10511;51.232;9.420;2023-11-21T09:29:41;7.40;99.90
20700;DHT22;10511;51.232;9.420;2023-11-21T09:32:08;7.50;99.90
20700;DHT22;10511;51.232;9.420;2023-11-21T09:34:39;7.50;99.90
20700;DHT22;10511;51.232;9.420;2023-11-21T09:37:07;7.60;99.90
20700;DHT22;10511;51.232;9.420;2023-11-21T09:39:35;7.70;99.90
20700;DHT22;10511;51.232;9.420;2023-11-21T09:42:08;7.70;99.90
20700;DHT22;10511;51.232;9.420;2023-11-21T09:44:48;7.60;99.90
20700;DHT22;10511;51.232;9.420;2023-11-21T09:47:19;7.60;99.90
20700;DHT22;10511;51.232;9.420;2023-11-21T09:49:48;7.50;99.90
20700;DHT22;10511;51.232;9.420;2023-11-21T09:52:25;7.70;99.90
20700;DHT22;10511;51.232;9.420;2023-11-21T09:54:53;7.80;99.90
20700;DHT22;10511;51.232;9.420;2023-11-21T09:57:23;7.70;99.90
20700;DHT22;10511;51.232;9.420;2023-11-21T09:59:51;7.70;99.90
20700;DHT22;10511;51.232;9.420;2023-11-21T10:02:22;7.80;99.90
20700;DHT22;10511;51.232;9.420;2023-11-21T10:04:53;7.70;99.90
20700;DHT22;10511;51.232;9.420;2023-11-21T10:07:21;7.70;99.90
20700;DHT22;10511;51.232;9.420;2023-11-21T10:09:48;7.60;99.90
20700;DHT22;10511;51.232;9.420;2023-11-21T10:12:15;7.60;99.90
20700;DHT22;10511;51.232;9.420;2023-11-21T10:14:42;7.60;99.90
20700;DHT22;10511;51.232;9.420;2023-11-21T10:17:12;7.60;99.90
20700;DHT22;10511;51.232;9.420;2023-11-21T10:19:42;7.60;99.90
20700;DHT22;10511;51.232;9.420;2023-11-21T10:22:12;7.60;99.90
20700;DHT22;10511;51.232;9.420;2023-11-21T10:24:40;7.60;99.90
20700;DHT22;10511;51.232;9.420;2023-11-21T10:27:09;7.60;99.90
20700;DHT22;10511;51.232;9.420;2023-11-21T10:29:36;7.60;99.90
20700;DHT22;10511;51.232;9.420;2023-11-21T10:32:03;7.50;99.90
20700;DHT22;10511;51.232;9.420;2023-11-21T10:34:31;7.50;99.90
20700;DHT22;10511;51.232;9.420;2023-11-21T10:36:58;7.60;99.90
20700;DHT22;10511;51.232;9.420;2023-11-21T10:39:26;7.70;99.90
20700;DHT22;10511;51.232;9.420;2023-11-21T10:41:56;7.70;99.90
20700;DHT22;10511;51.232;9.420;2023-11-21T10:44:23;7.70;99.90
20700;DHT22;10511;51.232;9.420;2023-11-21T10:46:52;7.70;99.90
20700;DHT22;10511;51.232;9.420;2023-11-21T10:49:22;7.70;99.90
20700;DHT22;10511;51.232;9.420;2023-11-21T10:51:50;7.70;99.90
20700;DHT22;10511;51.232;9.420;2023-11-21T10:54:19;7.70;99.90
20700;DHT22;10511;51.232;9.420;2023-11-21T10:56:49;7.70;99.90
20700;DHT22;10511;51.232;9.420;2023-11-21T10:59:17;7.70;99.90
20700;DHT22;10511;51.232;9.420;2023-11-21T11:01:46;7.70;99.90
20700;DHT22;10511;51.232;9.420;2023-11-21T11:04:15;7.80;99.90
20700;DHT22;10511;51.232;9.420;2023-11-21T11:06:45;7.90;99.90
20700;DHT22;10511;51.232;9.420;2023-11-21T11:09:17;8.00;99.90
20700;DHT22;10511;51.232;9.420;2023-11-21T11:11:44;7.90;99.90
20700;DHT22;10511;51.232;9.420;2023-11-21T11:14:13;7.90;99.90
20700;DHT22;10511;51.232;9.420;2023-11-21T11:16:41;8.00;99.90
20700;DHT22;10511;51.232;9.420;2023-11-21T11:19:08;8.00;99.90
20700;DHT22;10511;51.232;9.420;2023-11-21T11:21:46;7.90;99.90
20700;DHT22;10511;51.232;9.420;2023-11-21T11:24:38;7.80;99.90
20700;DHT22;10511;51.232;9.420;2023-11-21T11:27:14;7.90;99.90
20700;DHT22;10511;51.232;9.420;2023-11-21T11:29:52;7.90;99.90
20700;DHT22;10511;51.232;9.420;2023-11-21T11:32:27;7.80;99.90
20700;DHT22;10511;51.232;9.420;2023-11-21T11:35:04;7.80;99.90
20700;DHT22;10511;51.232;9.420;2023-11-21T11:37:33;7.80;99.90
20700;DHT22;10511;51.232;9.420;2023-11-21T11:40:00;7.90;99.90
20700;DHT22;10511;51.232;9.420;2023-11-21T11:42:27;8.00;99.90
20700;DHT22;10511;51.232;9.420;2023-11-21T11:44:57;8.10;99.90
20700;DHT22;10511;51.232;9.420;2023-11-21T11:47:25;8.20;99.90
20700;DHT22;10511;51.232;9.420;2023-11-21T11:49:57;8.20;99.90
20700;DHT22;10511;51.232;9.420;2023-11-21T11:52:35;8.20;99.90
20700;DHT22;10511;51.232;9.420;2023-11-21T11:55:03;8.10;99.90
20700;DHT22;10511;51.232;9.420;2023-11-21T11:57:30;8.00;99.90
20700;DHT22;10511;51.232;9.420;2023-11-21T12:00:13;8.10;99.90
20700;DHT22;10511;51.232;9.420;2023-11-21T12:02:45;8.10;99.90
20700;DHT22;10511;51.232;9.420;2023-11-21T12:05:13;8.10;99.90
20700;DHT22;10511;51.232;9.420;2023-11-21T12:07:44;8.10;99.90
20700;DHT22;10511;51.232;9.420;2023-11-21T12:10:14;8.10;99.90
20700;DHT22;10511;51.232;9.420;2023-11-21T12:12:47;8.20;99.90
20700;DHT22;10511;51.232;9.420;2023-11-21T12:15:16;8.10;99.90
20700;DHT22;10511;51.232;9.420;2023-11-21T12:17:44;8.00;99.90
20700;DHT22;10511;51.232;9.420;2023-11-21T12:20:12;7.90;99.90
20700;DHT22;10511;51.232;9.420;2023-11-21T12:22:44;7.70;99.90
20700;DHT22;10511;51.232;9.420;2023-11-21T12:25:13;7.60;99.90
20700;DHT22;10511;51.232;9.420;2023-11-21T12:27:42;7.60;99.90
20700;DHT22;10511;51.232;9.420;2023-11-21T12:30:11;7.60;99.90
20700;DHT22;10511;51.232;9.420;2023-11-21T12:32:43;7.60;99.90
20700;DHT22;10511;51.232;9.420;2023-11-21T12:35:12;7.60;99.90
20700;DHT22;10511;51.232;9.420;2023-11-21T12:37:40;7.60;99.90
20700;DHT22;10511;51.232;9.420;2023-11-21T12:40:10;7.60;99.90
20700;DHT22;10511;51.232;9.420;2023-11-21T12:42:39;7.60;99.90
20700;DHT22;10511;51.232;9.420;2023-11-21T12:45:09;7.60;99.90
20700;DHT22;10511;51.232;9.420;2023-11-21T12:47:42;7.70;99.90
20700;DHT22;10511;51.232;9.420;2023-11-21T12:50:10;7.70;99.90
20700;DHT22;10511;51.232;9.420;2023-11-21T12:52:44;7.70;99.90
20700;DHT22;10511;51.232;9.420;2023-11-21T12:55:17;7.70;99.90
20700;DHT22;10511;51.232;9.420;2023-11-21T12:57:48;7.70;99.90
20700;DHT22;10511;51.232;9.420;2023-11-21T13:00:18;7.70;99.90
20700;DHT22;10511;51.232;9.420;2023-11-21T13:02:55;7.70;99.90
20700;DHT22;10511;51.232;9.420;2023-11-21T13:05:25;7.60;99.90
20700;DHT22;10511;51.232;9.420;2023-11-21T13:07:52;7.60;99.90
20700;DHT22;10511;51.232;9.420;2023-11-21T13:10:21;7.60;99.90
20700;DHT22;10511;51.232;9.420;2023-11-21T13:12:51;7.60;99.90
20700;DHT22;10511;51.232;9.420;2023-11-21T13:15:20;7.60;99.90
20700;DHT22;10511;51.232;9.420;2023-11-21T13:17:47;7.60;99.90
20700;DHT22;10511;51.232;9.420;2023-11-21T13:20:17;7.60;99.90
20700;DHT22;10511;51.232;9.420;2023-11-21T13:22:49;7.60;99.90
20700;DHT22;10511;51.232;9.420;2023-11-21T13:25:19;7.50;99.90
20700;DHT22;10511;51.232;9.420;2023-11-21T13:27:46;7.50;99.90
20700;DHT22;10511;51.232;9.420;2023-11-21T13:30:14;7.50;99.90
20700;DHT22;10511;51.232;9.420;2023-11-21T13:32:43;7.50;99.90
20700;DHT22;10511;51.232;9.420;2023-11-21T13:35:12;7.50;99.90
20700;DHT22;10511;51.232;9.420;2023-11-21T13:37:51;7.40;99.90
20700;DHT22;10511;51.232;9.420;2023-11-21T13:40:22;7.30;99.90
20700;DHT22;10511;51.232;9.420;2023-11-21T13:42:52;7.40;99.90
20700;DHT22;10511;51.232;9.420;2023-11-21T13:45:21;7.30;99.90
20700;DHT22;10511;51.232;9.420;2023-11-21T13:47:50;7.20;99.90
20700;DHT22;10511;51.232;9.420;2023-11-21T13:50:23;7.20;99.90
20700;DHT22;10511;51.232;9.420;2023-11-21T13:53:01;7.20;99.90
20700;DHT22;10511;51.232;9.420;2023-11-21T13:55:30;7.10;99.90
20700;DHT22;10511;51.232;9.420;2023-11-21T13:57:56;7.10;99.90
20700;DHT22;10511;51.232;9.420;2023-11-21T14:00:24;7.00;99.90
20700;DHT22;10511;51.232;9.420;2023-11-21T14:03:10;7.00;99.90
20700;DHT22;10511;51.232;9.420;2023-11-21T14:05:44;7.00;99.90
20700;DHT22;10511;51.232;9.420;2023-11-21T14:08:14;6.90;99.90
20700;DHT22;10511;51.232;9.420;2023-11-21T14:10:45;6.70;99.90
20700;DHT22;10511;51.232;9.420;2023-11-21T14:13:16;6.60;99.90
20700;DHT22;10511;51.232;9.420;2023-11-21T14:15:43;6.50;99.90
20700;DHT22;10511;51.232;9.420;2023-11-21T14:18:12;6.40;99.90
20700;DHT22;10511;51.232;9.420;2023-11-21T14:20:44;6.30;99.90
20700;DHT22;10511;51.232;9.420;2023-11-21T14:23:11;6.20;99.90
20700;DHT22;10511;51.232;9.420;2023-11-21T14:25:39;6.20;99.90
20700;DHT22;10511;51.232;9.420;2023-11-21T14:28:07;6.20;99.90
20700;DHT22;10511;51.232;9.420;2023-11-21T14:30:37;6.10;99.90
20700;DHT22;10511;51.232;9.420;2023-11-21T14:33:05;6.10;99.90
20700;DHT22;10511;51.232;9.420;2023-11-21T14:35:34;6.10;99.90
20700;DHT22;10511;51.232;9.420;2023-11-21T14:38:01;6.10;99.90
20700;DHT22;10511;51.232;9.420;2023-11-21T14:40:30;6.10;99.90
20700;DHT22;10511;51.232;9.420;2023-11-21T14:43:00;6.10;99.90
20700;DHT22;10511;51.232;9.420;2023-11-21T14:45:28;6.00;99.90
20700;DHT22;10511;51.232;9.420;2023-11-21T14:47:55;6.00;99.90
20700;DHT22;10511;51.232;9.420;2023-11-21T14:50:32;6.00;99.90
20700;DHT22;10511;51.232;9.420;2023-11-21T14:53:36;5.90;99.90
20700;DHT22;10511;51.232;9.420;2023-11-21T14:56:09;5.90;99.90
20700;DHT22;10511;51.232;9.420;2023-11-21T14:58:38;5.90;99.90
20700;DHT22;10511;51.232;9.420;2023-11-21T15:01:05;5.80;99.90
20700;DHT22;10511;51.232;9.420;2023-11-21T15:03:33;5.80;99.90
20700;DHT22;10511;51.232;9.420;2023-11-21T15:06:09;5.80;99.90
20700;DHT22;10511;51.232;9.420;2023-11-21T15:08:53;5.70;99.90
20700;DHT22;10511;51.232;9.420;2023-11-21T15:11:26;5.70;99.90
20700;DHT22;10511;51.232;9.420;2023-11-21T15:13:58;5.60;99.90
20700;DHT22;10511;51.232;9.420;2023-11-21T15:16:26;5.60;99.90
20700;DHT22;10511;51.232;9.420;2023-11-21T15:18:52;5.60;99.90
20700;DHT22;10511;51.232;9.420;2023-11-21T15:21:20;5.60;99.90
20700;DHT22;10511;51.232;9.420;2023-11-21T15:23:48;5.60;99.90
20700;DHT22;10511;51.232;9.420;2023-11-21T15:26:14;5.60;99.90
20700;DHT22;10511;51.232;9.420;2023-11-21T15:28:41;5.60;99.90
20700;DHT22;10511;51.232;9.420;2023-11-21T15:31:09;5.60;99.90
20700;DHT22;10511;51.232;9.420;2023-11-21T15:33:36;5.60;99.90
20700;DHT22;10511;51.232;9.420;2023-11-21T15:36:04;5.60;99.90
20700;DHT22;10511;51.232;9.420;2023-11-21T15:38:35;5.60;99.90
20700;DHT22;10511;51.232;9.420;2023-11-21T15:41:02;5.60;99.90
20700;DHT22;10511;51.232;9.420;2023-11-21T15:43:30;5.60;99.90
20700;DHT22;10511;51.232;9.420;2023-11-21T15:45:58;5.60;99.90
20700;DHT22;10511;51.232;9.420;2023-11-21T15:48:28;5.60;99.90
20700;DHT22;10511;51.232;9.420;2023-11-21T15:50:56;5.60;99.90
20700;DHT22;10511;51.232;9.420;2023-11-21T15:53:24;5.60;99.90